createdAt,value
2022-08-12T00:00:42.959Z,2.80
2022-08-12T00:03:27.634Z,2.80
2022-08-12T00:06:12.976Z,3.20
2022-08-12T00:08:58.334Z,2.95
2022-08-12T00:11:45.094Z,3.00
2022-08-12T00:14:30.539Z,2.65
2022-08-12T00:17:15.362Z,2.90
2022-08-12T00:20:00.211Z,2.97
2022-08-12T00:22:46.620Z,2.70
2022-08-12T00:26:21.798Z,2.55
2022-08-12T00:28:59.284Z,2.58
2022-08-12T00:34:35.080Z,2.38
2022-08-12T00:37:19.881Z,2.53
2022-08-12T00:40:06.489Z,2.30
2022-08-12T00:42:40.277Z,2.80
2022-08-12T00:45:07.224Z,3.10
2022-08-12T00:47:34.743Z,2.92
2022-08-12T00:50:01.665Z,2.83
2022-08-12T00:52:27.841Z,2.90
2022-08-12T00:54:57.424Z,2.40
2022-08-12T00:57:26.405Z,2.60
2022-08-12T01:00:01.254Z,3.40
2022-08-12T01:02:30.987Z,3.08
2022-08-12T01:05:23.262Z,3.10
2022-08-12T01:08:10.811Z,3.00
2022-08-12T01:10:58.730Z,2.80
2022-08-12T01:13:25.629Z,3.28
2022-08-12T01:15:59.402Z,2.97
2022-08-12T01:18:30.217Z,3.40
2022-08-12T01:21:24.780Z,2.92
2022-08-12T01:24:30.285Z,3.30
2022-08-12T01:26:57.330Z,3.70
2022-08-12T01:29:28.570Z,2.80
2022-08-12T01:34:36.356Z,3.05
2022-08-12T01:37:05.213Z,3.13
2022-08-12T01:40:35.179Z,3.05
2022-08-12T01:42:50.448Z,2.70
2022-08-12T01:45:23.002Z,2.72
2022-08-12T01:48:14.948Z,3.80
2022-08-12T01:51:06.201Z,3.30
2022-08-12T01:54:04.723Z,3.30
2022-08-12T01:56:43.675Z,3.10
2022-08-12T01:59:33.590Z,2.88
2022-08-12T02:02:04.947Z,3.58
2022-08-12T02:05:19.677Z,3.65
2022-08-12T02:08:19.149Z,3.75
2022-08-12T02:11:18.703Z,3.20
2022-08-12T02:14:23.869Z,3.22
2022-08-12T02:16:50.690Z,3.50
2022-08-12T02:19:25.729Z,2.97
2022-08-12T02:22:05.830Z,3.22
2022-08-12T02:24:34.201Z,3.28
2022-08-12T02:27:01.910Z,3.35
2022-08-12T02:29:28.712Z,3.63
2022-08-12T02:31:55.362Z,3.30
2022-08-12T02:34:23.120Z,3.22
2022-08-12T02:36:49.949Z,3.13
2022-08-12T02:39:16.352Z,3.35
2022-08-12T02:41:45.995Z,3.85
2022-08-12T02:44:15.394Z,2.80
2022-08-12T02:46:50.213Z,3.17
2022-08-12T02:49:29.561Z,3.25
2022-08-12T02:51:56.387Z,3.33
2022-08-12T02:54:23.310Z,3.13
2022-08-12T02:56:50.962Z,3.30
2022-08-12T02:59:21.247Z,3.47
2022-08-12T03:01:56.068Z,3.45
2022-08-12T03:04:41.461Z,3.13
2022-08-12T03:07:42.054Z,3.40
2022-08-12T03:10:36.695Z,3.53
2022-08-12T03:13:07.434Z,3.90
2022-08-12T03:15:34.797Z,3.42
2022-08-12T03:18:24.101Z,3.92
2022-08-12T03:20:53.855Z,3.75
2022-08-12T03:23:30.005Z,3.67
2022-08-12T03:25:59.159Z,3.70
2022-08-12T03:28:44.262Z,3.60
2022-08-12T03:31:10.907Z,3.77
2022-08-12T03:33:39.931Z,3.47
2022-08-12T03:36:08.688Z,4.63
2022-08-12T03:38:38.653Z,3.80
2022-08-12T03:41:28.099Z,3.85
2022-08-12T03:44:35.355Z,4.05
2022-08-12T03:47:30.904Z,4.10
2022-08-12T03:50:17.206Z,4.43
2022-08-12T03:53:02.043Z,4.15
2022-08-12T03:55:46.887Z,3.78
2022-08-12T03:58:32.787Z,3.95
2022-08-12T04:00:59.009Z,3.75
2022-08-12T04:03:44.213Z,4.15
2022-08-12T04:06:10.589Z,4.28
2022-08-12T04:08:38.959Z,4.40
2022-08-12T04:11:26.223Z,4.10
2022-08-12T04:14:05.804Z,4.15
2022-08-12T04:16:35.186Z,3.90
2022-08-12T04:19:02.387Z,4.43
2022-08-12T04:21:28.777Z,3.72
2022-08-12T04:23:55.389Z,3.78
2022-08-12T04:26:21.629Z,3.97
2022-08-12T04:28:47.779Z,3.85
2022-08-12T04:31:14.375Z,3.80
2022-08-12T04:33:42.559Z,3.90
2022-08-12T04:36:09.438Z,3.90
2022-08-12T04:38:36.592Z,3.58
2022-08-12T04:41:03.965Z,4.07
2022-08-12T04:43:54.536Z,3.50
2022-08-12T04:46:19.540Z,3.90
2022-08-12T04:48:49.151Z,3.92
2022-08-12T04:51:16.379Z,3.80
2022-08-12T04:53:43.625Z,3.60
2022-08-12T04:56:12.840Z,3.97
2022-08-12T04:58:39.950Z,3.90
2022-08-12T05:01:07.812Z,3.45
2022-08-12T05:03:46.355Z,3.53
2022-08-12T05:06:18.898Z,3.72
2022-08-12T05:08:54.902Z,3.58
2022-08-12T05:11:25.115Z,3.65
2022-08-12T05:13:56.508Z,3.33
2022-08-12T11:23:25.388Z,1.50
2022-08-12T11:26:01.422Z,1.58
2022-08-12T11:28:34.522Z,2.40
2022-08-12T11:31:04.173Z,1.65
2022-08-12T11:34:04.546Z,2.13
2022-08-12T11:36:17.461Z,1.85
2022-08-12T11:38:43.714Z,1.38
2022-08-12T11:41:28.135Z,1.50
2022-08-12T11:43:59.063Z,1.63
2022-08-12T11:46:25.466Z,2.08
2022-08-12T11:48:52.654Z,1.60
2022-08-12T11:51:19.717Z,1.45
2022-08-12T11:53:59.591Z,1.50
2022-08-12T11:56:38.328Z,1.50
2022-08-12T12:02:01.174Z,1.50
2022-08-12T12:04:29.861Z,1.42
2022-08-12T12:06:56.625Z,1.33
2022-08-12T12:09:52.434Z,1.50
2022-08-12T12:12:19.874Z,1.40
2022-08-12T12:14:47.602Z,1.85
2022-08-12T12:17:21.242Z,1.40
2022-08-12T12:19:48.279Z,1.73
2022-08-12T12:22:15.528Z,1.33
2022-08-12T12:24:45.335Z,1.33
2022-08-12T12:27:11.463Z,1.25
2022-08-12T12:30:19.470Z,1.77
2022-08-12T12:32:31.045Z,1.48
2022-08-12T12:35:14.570Z,1.67
2022-08-12T12:38:05.611Z,1.85
2022-08-12T12:40:44.019Z,1.60
2022-08-12T12:43:11.290Z,1.70
2022-08-12T12:45:39.400Z,1.67
2022-08-12T12:48:12.786Z,1.38
2022-08-12T12:51:12.089Z,1.55
2022-08-12T12:54:06.982Z,1.80
2022-08-12T12:56:34.732Z,1.60
2022-08-12T12:59:02.212Z,2.45
2022-08-12T13:01:31.079Z,1.45
2022-08-12T13:04:02.642Z,1.20
2022-08-12T13:06:32.077Z,1.60
2022-08-12T13:09:02.461Z,1.30
2022-08-12T13:11:39.244Z,1.40
2022-08-12T13:14:12.869Z,1.50
2022-08-12T13:16:54.643Z,1.58
2022-08-12T13:19:25.105Z,1.17
2022-08-12T13:22:20.351Z,1.38
2022-08-12T13:24:55.833Z,1.50
2022-08-12T13:27:35.486Z,1.30
2022-08-12T13:30:06.615Z,1.75
2022-08-12T13:32:37.349Z,1.25
2022-08-12T13:35:19.345Z,1.50
2022-08-12T13:37:55.686Z,1.60
2022-08-12T13:40:24.687Z,1.40
2022-08-12T13:42:53.283Z,1.27
2022-08-12T13:45:19.574Z,1.50
2022-08-12T13:47:59.991Z,1.30
2022-08-12T13:50:33.888Z,1.20
2022-08-12T13:53:06.302Z,1.33
2022-08-12T13:55:49.852Z,1.30
2022-08-12T13:58:26.077Z,1.40
2022-08-12T14:00:53.596Z,1.40
2022-08-12T14:03:21.800Z,1.48
2022-08-12T14:05:59.493Z,1.40
2022-08-12T14:08:25.713Z,1.67
2022-08-12T14:11:00.734Z,1.45
2022-08-12T14:14:03.800Z,1.40
2022-08-12T14:16:46.929Z,1.80
2022-08-12T14:19:04.922Z,1.70
2022-08-12T14:21:37.510Z,1.67
2022-08-12T14:24:23.011Z,1.40
2022-08-12T14:26:53.327Z,1.58
2022-08-12T14:29:21.705Z,1.70
2022-08-12T14:32:07.715Z,1.60
2022-08-12T14:34:44.134Z,1.42
2022-08-12T14:37:13.009Z,1.60
2022-08-12T14:39:56.519Z,1.60
2022-08-12T14:42:22.758Z,1.63
2022-08-12T14:44:59.351Z,1.35
2022-08-12T14:47:27.154Z,1.63
2022-08-12T14:50:40.856Z,1.35
2022-08-12T14:55:43.442Z,1.25
2022-08-12T14:58:25.198Z,1.38
2022-08-12T15:01:11.315Z,1.40
2022-08-12T15:03:52.386Z,1.60
2022-08-12T15:06:39.421Z,1.38
2022-08-12T15:09:06.919Z,1.60
2022-08-12T15:11:54.592Z,1.70
2022-08-12T15:14:20.290Z,1.60
2022-08-12T15:16:48.746Z,1.92
2022-08-12T15:20:11.701Z,1.60
2022-08-12T15:22:37.556Z,1.30
2022-08-12T15:24:48.844Z,1.50
2022-08-12T15:27:15.014Z,1.48
2022-08-12T15:29:48.365Z,1.42
2022-08-12T15:32:30.500Z,1.80
2022-08-12T15:35:00.665Z,1.60
2022-08-12T15:38:10.519Z,1.50
2022-08-12T15:40:13.551Z,1.67
2022-08-12T15:42:39.730Z,1.65
2022-08-12T15:45:08.688Z,1.50
2022-08-12T15:47:49.776Z,1.52
2022-08-12T15:50:18.163Z,1.38
2022-08-12T15:52:50.839Z,1.40
2022-08-12T15:55:18.181Z,1.60
2022-08-12T15:57:53.838Z,1.80
2022-08-12T16:00:32.152Z,1.70
2022-08-12T16:03:01.852Z,1.50
2022-08-12T16:06:13.066Z,1.60
2022-08-12T16:08:27.423Z,1.60
2022-08-12T16:10:54.194Z,1.80
2022-08-12T16:13:32.496Z,1.63
2022-08-12T16:16:03.691Z,1.60
2022-08-12T16:18:35.691Z,1.70
2022-08-12T16:21:04.827Z,1.20
2022-08-12T16:23:51.251Z,1.70
2022-08-12T16:26:20.412Z,1.40
2022-08-12T16:29:14.593Z,1.60
2022-08-12T16:31:41.902Z,1.40
2022-08-12T16:34:10.707Z,1.30
2022-08-12T16:36:51.646Z,1.85
2022-08-12T16:39:19.611Z,1.42
2022-08-12T16:41:46.305Z,1.40
2022-08-12T16:44:12.437Z,1.30
2022-08-12T16:46:57.856Z,1.95
2022-08-12T16:49:24.762Z,1.60
2022-08-12T16:51:52.330Z,1.92
2022-08-12T16:54:26.625Z,1.50
2022-08-12T16:57:05.597Z,1.65
2022-08-12T16:59:53.662Z,1.60
2022-08-12T17:02:33.880Z,1.75
2022-08-12T17:05:03.415Z,1.50
2022-08-12T17:07:36.181Z,1.73
2022-08-12T17:10:05.636Z,1.58
2022-08-12T17:12:31.765Z,2.25
2022-08-12T17:14:58.193Z,1.83
2022-08-12T17:17:39.233Z,1.92
2022-08-12T17:20:36.087Z,1.95
2022-08-12T17:22:56.529Z,1.83
2022-08-12T17:25:24.483Z,2.10
2022-08-12T17:27:57.316Z,2.38
2022-08-12T17:30:24.561Z,1.88
2022-08-12T17:32:53.466Z,1.83
2022-08-12T17:35:37.215Z,1.70
2022-08-12T17:38:06.889Z,2.10
2022-08-12T17:40:35.826Z,1.67
2022-08-12T17:43:52.140Z,2.03
2022-08-12T17:45:56.174Z,1.65
2022-08-12T17:48:35.008Z,2.00
2022-08-12T17:51:15.107Z,1.85
2022-08-12T17:54:11.203Z,2.55
2022-08-12T17:56:31.920Z,1.70
2022-08-12T17:58:59.094Z,1.95
2022-08-12T18:01:25.458Z,2.00
2022-08-12T18:04:04.664Z,1.83
2022-08-12T18:06:44.279Z,1.88
2022-08-12T18:09:15.523Z,2.45
2022-08-12T18:12:03.748Z,1.88
2022-08-12T18:14:37.063Z,1.77
2022-08-12T18:17:08.276Z,1.88
2022-08-12T18:20:05.141Z,1.85
2022-08-12T18:22:30.344Z,3.08
2022-08-12T18:25:04.784Z,2.20
2022-08-12T18:27:44.302Z,2.25
2022-08-12T18:30:16.465Z,2.30
2022-08-12T18:33:04.321Z,1.90
2022-08-12T18:35:47.474Z,2.88
2022-08-12T18:38:20.453Z,2.40
2022-08-12T18:41:09.630Z,2.72
2022-08-12T18:43:57.264Z,2.58
2022-08-12T18:46:32.286Z,2.25
2022-08-12T18:49:17.995Z,2.38
2022-08-12T18:51:55.157Z,2.40
2022-08-12T18:54:35.015Z,2.38
2022-08-12T18:57:16.417Z,2.90
2022-08-12T19:00:00.683Z,9.07
2022-08-12T19:02:28.916Z,3.80
2022-08-12T19:04:57.647Z,4.68
2022-08-12T19:07:29.765Z,6.05
2022-08-12T19:10:13.002Z,3.53
2022-08-12T19:12:59.130Z,3.67
2022-08-12T19:15:27.224Z,3.67
2022-08-12T19:18:02.459Z,3.35
2022-08-12T19:20:30.066Z,3.22
2022-08-12T19:22:59.694Z,3.50
2022-08-12T19:25:59.548Z,3.50
2022-08-12T19:28:29.388Z,3.45
2022-08-12T19:31:15.574Z,3.20
2022-08-12T19:34:06.525Z,3.53
2022-08-12T19:36:31.387Z,3.05
2022-08-12T19:39:00.426Z,3.08
2022-08-12T19:41:43.016Z,3.40
2022-08-12T19:44:16.750Z,3.03
2022-08-12T19:46:51.935Z,3.22
2022-08-12T19:49:22.307Z,3.10
2022-08-12T19:51:52.059Z,3.58
2022-08-12T19:54:23.430Z,3.50
2022-08-12T19:56:57.624Z,3.38
2022-08-12T19:59:43.001Z,3.40
2022-08-12T20:02:33.013Z,3.90
2022-08-12T20:06:05.525Z,3.67
2022-08-12T20:07:57.100Z,3.55
2022-08-12T20:10:35.193Z,3.40
2022-08-12T20:13:17.581Z,4.47
2022-08-12T20:15:45.751Z,6.70
2022-08-12T20:18:43.942Z,5.72
2022-08-12T20:21:00.391Z,3.65
2022-08-12T20:23:50.219Z,3.25
2022-08-12T20:26:16.011Z,3.20
2022-08-12T20:28:42.808Z,3.88
2022-08-12T20:31:08.978Z,2.90
2022-08-12T20:33:50.594Z,3.00
2022-08-12T20:36:41.031Z,3.20
2022-08-12T20:39:37.066Z,3.50
2022-08-12T20:41:59.003Z,3.90
2022-08-12T20:44:26.761Z,6.60
2022-08-12T20:46:58.265Z,6.63
2022-08-12T20:49:24.642Z,4.90
2022-08-12T20:51:56.106Z,3.40
2022-08-12T20:54:22.833Z,3.30
2022-08-12T20:57:01.032Z,3.40
2022-08-12T20:59:31.758Z,4.00
2022-08-12T21:01:58.737Z,3.95
2022-08-12T21:04:49.621Z,3.75
2022-08-12T21:07:17.127Z,4.18
2022-08-12T21:09:51.243Z,4.25
2022-08-12T21:12:27.286Z,4.55
2022-08-12T21:15:16.964Z,5.00
2022-08-12T21:18:00.742Z,4.43
2022-08-12T21:20:32.639Z,3.60
2022-08-12T21:22:58.903Z,3.75
2022-08-12T21:25:25.571Z,3.30
2022-08-12T21:28:05.763Z,4.22
2022-08-12T21:30:34.207Z,3.67
2022-08-12T21:33:04.775Z,3.15
2022-08-12T21:35:40.110Z,3.78
2022-08-12T21:38:08.430Z,2.97
2022-08-12T21:40:37.624Z,3.42
2022-08-12T21:43:19.736Z,3.60
2022-08-12T21:46:01.125Z,3.63
2022-08-12T21:48:27.976Z,3.30
2022-08-12T21:50:56.133Z,3.65
2022-08-12T21:53:22.766Z,3.38
2022-08-12T21:56:09.303Z,3.20
2022-08-12T21:58:37.379Z,2.80
2022-08-12T22:01:04.154Z,2.88
2022-08-12T22:04:04.040Z,3.15
2022-08-12T22:06:43.812Z,3.25
2022-08-12T22:09:16.129Z,3.30
2022-08-12T22:11:56.108Z,3.03
2022-08-12T22:14:26.117Z,3.15
2022-08-12T22:16:54.921Z,2.88
2022-08-12T22:19:22.907Z,3.00
2022-08-12T22:21:54.754Z,2.90
2022-08-12T22:24:26.402Z,3.67
2022-08-12T22:26:55.910Z,3.00
2022-08-12T22:29:41.461Z,3.35
2022-08-12T22:32:07.811Z,3.40
2022-08-12T22:34:38.053Z,3.13
2022-08-12T22:37:05.782Z,2.92
2022-08-12T22:39:37.815Z,3.63
2022-08-12T22:42:30.746Z,3.40
2022-08-12T22:45:16.406Z,2.90
2022-08-12T22:47:55.420Z,3.00
2022-08-12T22:50:27.281Z,3.25
2022-08-12T22:53:15.151Z,4.13
2022-08-12T22:56:00.002Z,3.80
2022-08-12T22:58:31.635Z,3.20
2022-08-12T23:00:58.442Z,3.53
2022-08-12T23:03:49.006Z,2.90
2022-08-12T23:06:16.721Z,3.05
2022-08-12T23:08:43.591Z,3.42
2022-08-12T23:11:09.721Z,3.67
2022-08-12T23:13:57.180Z,3.38
2022-08-12T23:16:30.832Z,3.10
2022-08-12T23:19:09.681Z,3.17
2022-08-12T23:22:06.737Z,2.90
2022-08-12T23:24:36.249Z,3.38
2022-08-12T23:27:22.192Z,3.40
2022-08-12T23:29:59.382Z,3.35
2022-08-12T23:32:36.469Z,3.30
2022-08-12T23:37:53.967Z,3.95
2022-08-12T23:40:22.523Z,3.50
2022-08-12T23:42:50.753Z,3.22
2022-08-12T23:45:20.598Z,3.53
2022-08-12T23:48:00.545Z,3.38
2022-08-12T23:50:34.603Z,3.17
2022-08-12T23:53:02.696Z,3.63
2022-08-12T23:55:34.095Z,3.88
2022-08-12T23:58:21.276Z,3.17
